Time;durP1;ratioP1;P1;durP2;ratioP2;P2;SDS_P1;SDS_P2;PMS_P1;PMS_P2;Temp;Humidity;BMP_temperature;BMP_pressure;BME280_temperature;BME280_humidity;BME280_pressure;Samples;Min_cycle;Max_cycle;Signal;HPM_P1;HPM_P2
2023/07/19 00:08:28;;;;;;;;;;;;;;;18.53;83.70;101509.78;21112292;27;19927;-61
2023/07/19 00:18:49;;;;;;;;;;;;;;;18.52;82.88;101497.63;21104697;27;20299;-62
2023/07/19 00:29:10;;;;;;;;;;;;;;;18.52;82.18;101479.28;21104507;27;19935;-61
2023/07/19 00:39:32;;;;;;;;;;;;;;;18.50;82.71;101457.53;21088418;27;20404;-61
2023/07/19 00:49:54;;;;;;;;;;;;;;;18.45;82.46;101456.09;21103874;27;19990;-62
2023/07/19 01:00:16;;;;;;;;;;;;;;;18.44;82.62;101444.75;21113616;27;19924;-61
2023/07/19 01:10:37;;;;;;;;;;;;;;;18.37;83.22;101440.72;21097698;27;19985;-62
2023/07/19 01:20:59;;;;;;;;;;;;;;;18.32;83.23;101437.50;21090481;27;19928;-62
2023/07/19 01:31:37;;;;;;;;;;;;;;;18.31;83.22;101425.34;21104250;27;19971;-62
2023/07/19 01:41:59;;;;;;;;;;;;;;;18.26;83.60;101409.00;21102435;27;20839;-61
2023/07/19 01:52:21;;;;;;;;;;;;;;;18.22;85.08;101410.06;21095062;27;19924;-61
2023/07/19 02:02:42;;;;;;;;;;;;;;;18.20;85.60;101409.34;21080720;27;19925;-62
2023/07/19 02:13:04;;;;;;;;;;;;;;;18.14;84.83;101396.53;21093690;27;19926;-61
2023/07/19 02:23:25;;;;;;;;;;;;;;;18.11;85.50;101383.63;21089529;27;19935;-61
2023/07/19 02:33:47;;;;;;;;;;;;;;;18.04;85.58;101366.50;21090911;27;19927;-61
2023/07/19 02:44:08;;;;;;;;;;;;;;;18.03;85.36;101362.19;21087423;27;20113;-62
2023/07/19 02:54:30;;;;;;;;;;;;;;;17.95;85.70;101369.59;21085574;28;19927;-61
2023/07/19 03:04:51;;;;;;;;;;;;;;;17.90;86.87;101362.00;21077613;28;19931;-61
2023/07/19 03:15:13;;;;;;;;;;;;;;;17.86;87.32;101359.59;21074947;28;19928;-61
2023/07/19 03:25:34;;;;;;;;;;;;;;;17.80;87.16;101349.47;21097142;28;19935;-61
2023/07/19 03:35:56;;;;;;;;;;;;;;;17.76;87.52;101346.13;21088089;28;19971;-61
2023/07/19 03:46:17;;;;;;;;;;;;;;;17.77;88.69;101344.38;21092145;28;19924;-62
2023/07/19 03:56:39;;;;;;;;;;;;;;;17.65;91.22;101350.25;21087595;28;19972;-62
2023/07/19 04:07:00;;;;;;;;;;;;;;;17.56;94.09;101319.28;21105907;27;19924;-61
2023/07/19 04:17:22;;;;;;;;;;;;;;;17.41;94.99;101322.66;21124073;27;19923;-62
2023/07/19 04:27:43;;;;;;;;;;;;;;;17.41;94.80;101326.13;21114035;27;20359;-62
2023/07/19 04:38:05;;;;;;;;;;;;;;;17.46;96.13;101324.13;21090578;27;20056;-62
2023/07/19 04:48:26;;;;;;;;;;;;;;;17.56;96.69;101329.78;21094496;27;19958;-62
2023/07/19 04:58:48;;;;;;;;;;;;;;;17.51;95.25;101344.81;21083364;27;20148;-62
2023/07/19 05:09:10;;;;;;;;;;;;;;;17.46;97.34;101345.03;21103945;27;19928;-62
2023/07/19 05:19:31;;;;;;;;;;;;;;;17.42;95.39;101337.41;21087922;27;19924;-61
2023/07/19 05:29:53;;;;;;;;;;;;;;;17.44;94.91;101335.56;21107799;27;19942;-61
2023/07/19 05:40:15;;;;;;;;;;;;;;;17.40;96.68;101339.25;21101359;27;19928;-61
2023/07/19 05:50:37;;;;;;;;;;;;;;;17.39;97.94;101342.81;21079540;27;19977;-61
2023/07/19 06:00:58;;;;;;;;;;;;;;;17.39;96.69;101329.72;21098790;27;19938;-62
2023/07/19 06:11:20;;;;;;;;;;;;;;;17.42;96.14;101340.03;21091875;27;19927;-62
2023/07/19 06:21:42;;;;;;;;;;;;;;;17.48;95.62;101332.75;21079231;27;19928;-62
2023/07/19 06:32:04;;;;;;;;;;;;;;;17.84;94.65;101335.25;21099448;27;20276;-62
2023/07/19 06:42:26;;;;;;;;;;;;;;;18.11;92.93;101323.38;21086953;27;19928;-61
2023/07/19 06:52:47;;;;;;;;;;;;;;;18.20;92.96;101322.88;21078604;27;19923;-61
2023/07/19 07:03:08;;;;;;;;;;;;;;;18.37;90.15;101330.66;21075390;28;19927;-61
2023/07/19 07:13:30;;;;;;;;;;;;;;;18.61;88.32;101323.25;21078720;28;19928;-61
2023/07/19 07:23:52;;;;;;;;;;;;;;;18.75;85.96;101325.97;21089905;28;19927;-61
2023/07/19 07:34:13;;;;;;;;;;;;;;;18.79;85.88;101317.84;21077763;28;20569;-61
2023/07/19 07:44:35;;;;;;;;;;;;;;;19.18;84.83;101325.22;21100770;27;19928;-61
2023/07/19 07:54:56;;;;;;;;;;;;;;;19.44;82.62;101315.88;21115264;27;20004;-61
2023/07/19 08:05:18;;;;;;;;;;;;;;;19.48;81.67;101327.88;21108365;27;19933;-61
2023/07/19 08:15:39;;;;;;;;;;;;;;;19.61;81.34;101318.34;21086074;27;19924;-61
2023/07/19 08:26:00;;;;;;;;;;;;;;;19.31;80.57;101325.34;21078420;27;19928;-62
2023/07/19 08:36:22;;;;;;;;;;;;;;;19.32;80.77;101322.66;21108664;27;19924;-62
2023/07/19 08:46:45;;;;;;;;;;;;;;;19.32;80.34;101327.09;21104485;27;19923;-62
2023/07/19 08:57:06;;;;;;;;;;;;;;;19.35;80.27;101312.00;21091743;27;20019;-62
2023/07/19 09:07:27;;;;;;;;;;;;;;;19.58;79.10;101292.25;21100828;27;20375;-62
2023/07/19 09:17:49;;;;;;;;;;;;;;;19.93;78.43;101297.06;21085906;27;19931;-62
2023/07/19 09:28:11;;;;;;;;;;;;;;;19.93;76.35;101310.22;21100417;27;20435;-62
2023/07/19 09:38:32;;;;;;;;;;;;;;;20.07;74.62;101300.66;21091670;27;19970;-62
2023/07/19 09:48:54;;;;;;;;;;;;;;;20.22;72.66;101303.19;21095584;27;19979;-62
2023/07/19 09:59:31;;;;;;;;;;;;;;;20.20;73.65;101307.69;21085016;27;20268;-62
2023/07/19 10:10:01;;;;;;;;;;;;;;;20.24;71.87;101306.56;21097696;27;20641;-62
2023/07/19 10:20:33;;;;;;;;;;;;;;;20.63;72.23;101293.53;21097627;27;19923;-62
2023/07/19 10:30:55;;;;;;;;;;;;;;;20.91;69.73;101288.16;21099417;27;19927;-62
2023/07/19 10:41:20;;;;;;;;;;;;;;;21.23;71.12;101290.47;21091537;27;20204;-61
2023/07/19 10:51:52;;;;;;;;;;;;;;;21.16;70.43;101294.47;21082080;27;19932;-62
2023/07/19 11:02:14;;;;;;;;;;;;;;;21.05;71.15;101281.19;21096462;27;20699;-62
2023/07/19 11:12:36;;;;;;;;;;;;;;;21.26;69.83;101275.31;21095850;28;19925;-62
2023/07/19 11:23:08;;;;;;;;;;;;;;;20.99;69.26;101283.28;21110969;27;20413;-62
2023/07/19 11:33:29;;;;;;;;;;;;;;;20.68;72.04;101278.28;21104328;27;20009;-62
2023/07/19 11:43:51;;;;;;;;;;;;;;;20.86;72.56;101265.72;21102225;27;19931;-62
2023/07/19 11:54:14;;;;;;;;;;;;;;;21.10;72.91;101258.06;21119729;27;20347;-62
2023/07/19 12:04:35;;;;;;;;;;;;;;;21.14;72.11;101264.78;21116786;27;20417;-62
2023/07/19 12:14:59;;;;;;;;;;;;;;;20.51;79.55;101278.53;21077624;27;20011;-62
2023/07/19 12:25:21;;;;;;;;;;;;;;;20.05;82.03;101266.59;21103687;27;19927;-62
2023/07/19 12:35:47;;;;;;;;;;;;;;;20.27;80.84;101274.00;21102775;27;19930;-62
2023/07/19 12:46:09;;;;;;;;;;;;;;;20.27;79.96;101269.59;21101592;27;20047;-62
2023/07/19 12:56:32;;;;;;;;;;;;;;;20.44;79.52;101269.34;21108255;27;20447;-62
2023/07/19 13:06:54;;;;;;;;;;;;;;;20.32;78.18;101274.53;21094293;27;19924;-62
2023/07/19 13:17:16;;;;;;;;;;;;;;;20.33;77.72;101278.84;21088256;27;19931;-62
2023/07/19 13:27:43;;;;;;;;;;;;;;;20.27;77.17;101281.88;21110054;27;19923;-62
2023/07/19 13:38:04;;;;;;;;;;;;;;;20.26;78.47;101294.16;21091951;27;19928;-62
2023/07/19 13:48:27;;;;;;;;;;;;;;;20.39;75.65;101286.34;21100950;27;19973;-62
2023/07/19 13:58:49;;;;;;;;;;;;;;;20.32;73.64;101293.81;21098374;27;20428;-62
2023/07/19 14:09:10;;;;;;;;;;;;;;;20.46;76.86;101283.25;21102309;27;20323;-62
2023/07/19 14:19:32;;;;;;;;;;;;;;;20.65;74.41;101281.13;21098952;27;19932;-62
2023/07/19 14:29:53;;;;;;;;;;;;;;;20.90;72.08;101283.84;21094594;27;20462;-62
2023/07/19 14:40:15;;;;;;;;;;;;;;;21.02;69.91;101267.28;21091548;27;19930;-62
2023/07/19 14:50:36;;;;;;;;;;;;;;;21.29;66.19;101266.38;21090084;27;20296;-62
2023/07/19 15:00:59;;;;;;;;;;;;;;;21.22;65.89;101263.34;21070417;28;19923;-62
2023/07/19 15:11:21;;;;;;;;;;;;;;;21.11;69.19;101267.63;21094905;28;19924;-62
2023/07/19 15:21:45;;;;;;;;;;;;;;;21.14;70.00;101264.78;21089991;28;20018;-62
2023/07/19 15:32:07;;;;;;;;;;;;;;;21.02;70.82;101266.47;21092872;28;19931;-62
2023/07/19 15:42:28;;;;;;;;;;;;;;;20.93;71.48;101273.13;21100371;28;19934;-62
2023/07/19 15:52:50;;;;;;;;;;;;;;;20.90;70.48;101272.47;21085078;28;19932;-62
2023/07/19 16:03:11;;;;;;;;;;;;;;;20.78;71.46;101278.56;21091912;27;19930;-62
2023/07/19 16:13:33;;;;;;;;;;;;;;;20.55;69.73;101285.28;21095086;27;19947;-62
2023/07/19 16:23:55;;;;;;;;;;;;;;;20.30;70.08;101287.78;21107620;27;20364;-62
2023/07/19 16:34:16;;;;;;;;;;;;;;;20.48;69.28;101296.28;21110925;27;19927;-62
2023/07/19 16:44:38;;;;;;;;;;;;;;;20.53;68.19;101295.06;21090859;27;20019;-61
2023/07/19 16:54:59;;;;;;;;;;;;;;;20.27;70.27;101290.63;21091696;27;20026;-61
2023/07/19 17:05:21;;;;;;;;;;;;;;;20.08;71.51;101287.41;21098343;27;19923;-62
2023/07/19 17:15:43;;;;;;;;;;;;;;;20.16;68.29;101305.34;21105707;27;19928;-61
2023/07/19 17:26:04;;;;;;;;;;;;;;;20.20;71.27;101305.06;21104380;27;20575;-61
2023/07/19 17:36:26;;;;;;;;;;;;;;;19.95;70.46;101310.13;21091602;27;19924;-61
2023/07/19 17:46:48;;;;;;;;;;;;;;;19.77;71.78;101313.88;21098734;27;20000;-61
2023/07/19 17:57:09;;;;;;;;;;;;;;;19.81;70.54;101320.63;21084929;27;20314;-61
2023/07/19 18:07:31;;;;;;;;;;;;;;;19.67;70.98;101331.94;21096379;27;19931;-62
2023/07/19 18:17:52;;;;;;;;;;;;;;;19.44;72.59;101352.63;21102372;27;19989;-62
2023/07/19 18:28:14;;;;;;;;;;;;;;;19.27;72.42;101334.34;21083346;27;20409;-62
2023/07/19 18:38:38;;;;;;;;;;;;;;;19.13;71.97;101357.91;21092612;27;19928;-62
2023/07/19 18:48:59;;;;;;;;;;;;;;;19.13;72.55;101360.53;21099606;27;20364;-61
2023/07/19 18:59:21;;;;;;;;;;;;;;;19.02;71.46;101364.63;21097565;27;20601;-62
2023/07/19 19:09:42;;;;;;;;;;;;;;;18.93;72.96;101373.00;21078619;28;19928;-61
2023/07/19 19:20:04;;;;;;;;;;;;;;;18.84;72.99;101363.00;21094511;28;19968;-62
2023/07/19 19:30:25;;;;;;;;;;;;;;;18.76;73.16;101370.47;21095055;28;19930;-61
2023/07/19 19:40:47;;;;;;;;;;;;;;;18.68;73.91;101371.81;21112731;27;20026;-62
2023/07/19 19:51:08;;;;;;;;;;;;;;;18.56;74.06;101368.09;21094855;27;19932;-62
2023/07/19 20:01:31;;;;;;;;;;;;;;;18.38;73.68;101353.31;21094838;27;19923;-62
2023/07/19 20:11:55;;;;;;;;;;;;;;;18.31;74.38;101372.06;21088876;27;19932;-62
2023/07/19 20:22:16;;;;;;;;;;;;;;;18.23;75.05;101374.25;21103901;27;19931;-62
2023/07/19 20:32:38;;;;;;;;;;;;;;;18.17;75.06;101372.78;21106092;27;19939;-62
2023/07/19 20:43:03;;;;;;;;;;;;;;;18.03;76.23;101372.69;21095555;27;19928;-62
2023/07/19 20:53:24;;;;;;;;;;;;;;;18.01;76.32;101369.28;21102403;27;19932;-62
2023/07/19 21:03:46;;;;;;;;;;;;;;;18.01;76.00;101369.28;21103913;27;19928;-62
2023/07/19 21:14:07;;;;;;;;;;;;;;;18.03;76.88;101372.69;21088180;27;19970;-62
2023/07/19 21:24:29;;;;;;;;;;;;;;;17.91;78.29;101374.16;21088276;27;20384;-62
2023/07/19 21:34:51;;;;;;;;;;;;;;;17.79;79.20;101369.56;21088852;27;20415;-62
2023/07/19 21:45:12;;;;;;;;;;;;;;;17.78;79.62;101380.94;21078725;27;19928;-62
2023/07/19 21:55:34;;;;;;;;;;;;;;;17.80;79.91;101375.66;21082183;27;19955;-62
2023/07/19 22:05:55;;;;;;;;;;;;;;;17.73;80.73;101374.22;21105547;27;20567;-62
2023/07/19 22:16:17;;;;;;;;;;;;;;;17.64;80.98;101379.94;21093269;27;19930;-62
2023/07/19 22:26:39;;;;;;;;;;;;;;;17.52;80.98;101388.41;21082262;27;19924;-62
2023/07/19 22:37:00;;;;;;;;;;;;;;;17.44;80.88;101388.75;21091048;27;19924;-62
2023/07/19 22:47:21;;;;;;;;;;;;;;;17.35;80.70;101390.97;21093382;27;19934;-62
2023/07/19 22:57:43;;;;;;;;;;;;;;;17.40;81.16;101383.75;21101706;27;20002;-62
2023/07/19 23:08:05;;;;;;;;;;;;;;;17.36;80.75;101388.28;21066762;27;20015;-62
2023/07/19 23:18:26;;;;;;;;;;;;;;;17.30;81.81;101390.34;21098102;27;19969;-62
2023/07/19 23:28:48;;;;;;;;;;;;;;;17.21;80.46;101402.13;21106063;27;20660;-62
2023/07/19 23:39:09;;;;;;;;;;;;;;;17.06;81.64;101414.16;21100374;27;19934;-62
2023/07/19 23:49:31;;;;;;;;;;;;;;;16.83;86.61;101417.00;21088218;27;20388;-62
2023/07/19 23:59:52;;;;;;;;;;;;;;;16.57;91.82;101419.13;21100999;27;19966;-62
